Time;durP1;ratioP1;P1;durP2;ratioP2;P2;SDS_P1;SDS_P2;PMS_P1;PMS_P2;Temp;Humidity;BMP_temperature;BMP_pressure;BME280_temperature;BME280_humidity;BME280_pressure;Samples;Min_cycle;Max_cycle;Signal;HPM_P1;HPM_P2
2022/08/10 00:00:52;;;;;;;5.07;2.00;;;;;;;14.95;100.00;102252.09;5076927;28;20413;-82
2022/08/10 00:03:21;;;;;;;3.20;2.00;;;;;;;14.89;100.00;102255.94;5088399;28;21241;-82
2022/08/10 00:05:55;;;;;;;4.13;2.00;;;;;;;14.86;100.00;102254.56;5089831;28;20425;-82
2022/08/10 00:08:24;;;;;;;3.75;2.10;;;;;;;14.83;100.00;102255.09;5075744;28;20433;-83
2022/08/10 00:10:58;;;;;;;3.33;2.03;;;;;;;14.78;100.00;102255.09;5085451;28;20432;-82
2022/08/10 00:13:31;;;;;;;5.00;2.03;;;;;;;14.82;100.00;102260.81;5086854;28;20415;-83
2022/08/10 00:16:00;;;;;;;5.13;2.20;;;;;;;14.82;100.00;102255.34;5075994;28;20420;-83
2022/08/10 00:18:29;;;;;;;4.53;2.25;;;;;;;14.77;100.00;102261.66;5083959;28;20905;-82
2022/08/10 00:21:04;;;;;;;3.70;2.15;;;;;;;14.77;100.00;102251.50;5079196;28;20420;-82
2022/08/10 00:23:38;;;;;;;5.50;2.10;;;;;;;14.72;100.00;102247.91;5101901;28;20440;-82
2022/08/10 00:26:11;;;;;;;3.85;2.10;;;;;;;14.63;100.00;102245.69;5088897;28;20508;-83
2022/08/10 00:28:39;;;;;;;3.97;2.30;;;;;;;14.63;100.00;102253.94;5086006;28;20444;-83
2022/08/10 00:31:12;;;;;;;3.67;2.10;;;;;;;14.53;100.00;102250.28;5083912;28;20422;-83
2022/08/10 00:33:47;;;;;;;4.30;2.40;;;;;;;14.46;100.00;102250.56;5083841;28;20885;-82
2022/08/10 00:36:15;;;;;;;4.15;2.20;;;;;;;14.43;100.00;102238.22;5085352;28;20444;-82
2022/08/10 00:38:48;;;;;;;4.07;2.15;;;;;;;14.33;100.00;102248.31;5092547;28;20422;-83
2022/08/10 00:41:22;;;;;;;4.28;2.17;;;;;;;14.18;100.00;102238.09;5083334;28;20429;-83
2022/08/10 00:43:55;;;;;;;6.18;2.35;;;;;;;14.12;100.00;102239.97;5084096;28;20599;-82
2022/08/10 00:46:28;;;;;;;5.50;2.38;;;;;;;14.17;100.00;102240.03;5087482;28;20429;-83
2022/08/10 00:49:03;;;;;;;4.43;2.40;;;;;;;14.11;100.00;102241.06;5083849;28;20449;-82
2022/08/10 00:51:36;;;;;;;5.80;2.80;;;;;;;13.93;100.00;102225.91;5080068;28;20426;-82
2022/08/10 00:54:09;;;;;;;3.22;2.00;;;;;;;14.03;100.00;102228.72;5084986;28;20920;-82
2022/08/10 00:56:43;;;;;;;4.60;2.30;;;;;;;14.02;100.00;102229.81;5092810;28;20576;-83
2022/08/10 00:59:17;;;;;;;4.45;2.28;;;;;;;13.98;100.00;102227.88;5087171;28;20398;-83
2022/08/10 01:01:50;;;;;;;4.47;2.13;;;;;;;13.94;100.00;102235.78;5082144;28;20425;-82
2022/08/10 01:04:24;;;;;;;4.28;2.30;;;;;;;14.01;100.00;102239.09;5090672;28;20433;-82
2022/08/10 01:07:10;;;;;;;4.03;2.30;;;;;;;14.07;100.00;102240.78;5086513;28;20426;-82
2022/08/10 01:09:58;;;;;;;4.88;2.20;;;;;;;13.97;100.00;102221.56;5087581;28;20433;-83
2022/08/10 01:12:39;;;;;;;4.05;2.25;;;;;;;14.06;100.00;102235.59;5088844;28;20430;-83
2022/08/10 01:15:19;;;;;;;5.30;2.20;;;;;;;14.11;100.00;102235.59;5082809;28;20410;-83
2022/08/10 01:17:58;;;;;;;4.00;2.20;;;;;;;14.08;100.00;102233.38;5096778;28;20438;-82
2022/08/10 01:20:37;;;;;;;3.85;2.28;;;;;;;14.14;100.00;102237.81;5083761;28;20421;-82
2022/08/10 01:23:28;;;;;;;3.78;2.28;;;;;;;13.94;100.00;102208.41;5084509;28;20424;-83
2022/08/10 01:26:23;;;;;;;5.37;2.50;;;;;;;14.09;100.00;102235.84;5086422;28;20402;-83
2022/08/10 01:29:08;;;;;;;4.20;2.30;;;;;;;14.05;100.00;102242.94;5084488;28;20432;-83
2022/08/10 01:31:46;;;;;;;5.00;2.40;;;;;;;13.99;100.00;102246.75;5078504;28;20427;-82
2022/08/10 01:34:23;;;;;;;4.13;2.30;;;;;;;13.98;100.00;102239.63;5087903;28;20418;-82
2022/08/10 01:37:03;;;;;;;4.80;2.42;;;;;;;13.98;100.00;102242.38;5083382;28;20874;-83
2022/08/10 01:39:40;;;;;;;5.20;2.50;;;;;;;13.80;100.00;102207.25;5080762;28;20418;-83
2022/08/10 01:42:16;;;;;;;3.92;2.33;;;;;;;13.88;100.00;102237.66;5079073;28;20998;-82
2022/08/10 01:44:53;;;;;;;4.70;2.42;;;;;;;13.89;100.00;102230.25;5089470;28;20421;-83
2022/08/10 01:50:22;;;;;;;6.10;2.70;;;;;;;13.82;100.00;102229.69;5103960;28;20432;-84
2022/08/10 01:53:01;;;;;;;4.72;2.50;;;;;;;13.85;100.00;102229.13;5078566;28;20422;-83
2022/08/10 01:55:36;;;;;;;4.65;2.60;;;;;;;13.88;100.00;102228.59;5082306;28;20431;-83
2022/08/10 01:58:07;;;;;;;4.03;2.58;;;;;;;13.88;100.00;102221.25;5070764;28;20412;-83
2022/08/10 02:00:44;;;;;;;5.33;2.80;;;;;;;13.93;100.00;102234.13;5088693;28;20506;-82
2022/08/10 02:03:17;;;;;;;5.28;2.50;;;;;;;13.93;100.00;102231.38;5080690;28;20429;-83
2022/08/10 02:05:55;;;;;;;5.70;2.85;;;;;;;13.80;100.00;102197.09;5082803;28;20423;-83
2022/08/10 02:08:30;;;;;;;6.30;3.00;;;;;;;13.87;100.00;102219.59;5084555;28;20422;-83
2022/08/10 02:11:05;;;;;;;5.03;2.70;;;;;;;13.86;100.00;102225.31;5082318;28;20426;-82
2022/08/10 02:13:40;;;;;;;4.50;2.63;;;;;;;13.85;100.00;102227.25;5083444;28;20417;-83
2022/08/10 02:16:15;;;;;;;7.85;3.40;;;;;;;13.85;100.00;102223.66;5087208;28;20880;-83
2022/08/10 02:18:52;;;;;;;7.65;3.17;;;;;;;13.88;100.00;102232.19;5081592;28;20423;-83
2022/08/10 02:21:22;;;;;;;6.22;3.17;;;;;;;13.89;100.00;102230.25;5077524;28;20405;-83
2022/08/10 02:23:57;;;;;;;6.30;3.05;;;;;;;13.85;100.00;102229.13;5085761;28;20410;-83
2022/08/10 02:26:31;;;;;;;6.95;3.17;;;;;;;13.87;100.00;102225.06;5073736;28;20426;-83
2022/08/10 02:29:05;;;;;;;6.05;3.53;;;;;;;13.82;100.00;102230.50;5082715;28;20519;-83
2022/08/10 02:31:40;;;;;;;5.90;3.30;;;;;;;13.77;100.00;102236.75;5084729;28;20425;-83
2022/08/10 02:34:15;;;;;;;7.38;3.50;;;;;;;13.73;100.00;102226.63;5087585;28;20436;-83
2022/08/10 02:36:47;;;;;;;5.65;3.40;;;;;;;13.72;100.00;102224.97;5081634;28;20430;-83
2022/08/10 02:39:23;;;;;;;5.93;3.30;;;;;;;13.71;100.00;102232.34;5084647;28;20427;-83
2022/08/10 02:42:02;;;;;;;7.40;3.53;;;;;;;13.70;100.00;102227.13;5082333;28;20427;-83
2022/08/10 02:44:42;;;;;;;7.10;3.50;;;;;;;13.55;100.00;102203.25;5088080;28;20945;-83
2022/08/10 02:47:12;;;;;;;6.55;3.60;;;;;;;13.69;100.00;102222.75;5089007;28;20425;-83
2022/08/10 02:49:51;;;;;;;7.45;3.60;;;;;;;13.75;100.00;102219.81;5084310;28;20422;-83
2022/08/10 02:52:30;;;;;;;7.32;3.85;;;;;;;13.68;100.00;102216.44;5083239;28;20759;-83
2022/08/10 02:55:10;;;;;;;7.50;3.97;;;;;;;13.71;100.00;102223.31;5078684;28;20857;-84
2022/08/10 02:57:49;;;;;;;7.30;3.90;;;;;;;13.68;100.00;102218.38;5085474;28;21026;-83
2022/08/10 03:00:24;;;;;;;9.40;3.90;;;;;;;13.70;100.00;102216.19;5080561;28;20502;-83
2022/08/10 03:02:53;;;;;;;7.43;3.95;;;;;;;13.62;100.00;102220.25;5084798;28;20412;-83
2022/08/10 03:05:23;;;;;;;6.95;3.70;;;;;;;13.37;100.00;102188.88;5083216;28;20428;-84
2022/08/10 03:08:01;;;;;;;6.90;4.20;;;;;;;13.62;100.00;102228.44;5079405;28;20422;-83
2022/08/10 03:10:33;;;;;;;9.27;4.72;;;;;;;13.61;100.00;102233.09;5086932;28;20416;-84
2022/08/10 03:13:09;;;;;;;8.23;5.07;;;;;;;13.65;100.00;102227.91;5079050;28;20410;-82
2022/08/10 03:15:39;;;;;;;9.50;5.00;;;;;;;13.66;100.00;102229.56;5086519;28;20417;-83
2022/08/10 03:18:09;;;;;;;8.43;4.60;;;;;;;13.68;100.00;102227.38;5090173;28;20989;-83
2022/08/10 03:20:41;;;;;;;7.95;4.70;;;;;;;13.73;100.00;102234.81;5084760;28;20419;-83
2022/08/10 03:23:14;;;;;;;9.63;5.20;;;;;;;13.61;100.00;102224.88;5088364;28;20429;-83
2022/08/10 03:25:51;;;;;;;8.07;4.83;;;;;;;13.62;100.00;102228.44;5081072;28;20459;-83
2022/08/10 03:28:26;;;;;;;8.55;5.13;;;;;;;13.57;100.00;102220.19;5076561;28;20424;-83
2022/08/10 03:31:01;;;;;;;10.85;5.20;;;;;;;13.54;100.00;102228.94;5084834;28;20398;-83
2022/08/10 03:33:38;;;;;;;8.98;5.38;;;;;;;13.53;100.00;102235.50;5085610;28;20433;-83
2022/08/10 03:36:13;;;;;;;8.90;5.00;;;;;;;13.52;100.00;102222.88;5085635;28;20430;-85
2022/08/10 03:38:50;;;;;;;9.10;5.55;;;;;;;13.54;100.00;102226.19;5083392;28;20897;-83
2022/08/10 03:41:23;;;;;;;9.13;5.53;;;;;;;13.48;100.00;102239.03;5086006;28;20417;-83
2022/08/10 03:43:58;;;;;;;8.90;5.35;;;;;;;13.51;100.00;102243.16;5086286;28;20428;-82
2022/08/10 03:46:33;;;;;;;9.23;5.70;;;;;;;13.50;100.00;102242.31;5089759;28;20421;-82
2022/08/10 03:49:07;;;;;;;9.45;5.50;;;;;;;13.47;100.00;102236.53;5090016;28;20434;-82
2022/08/10 03:51:42;;;;;;;15.45;5.88;;;;;;;13.48;100.00;102249.97;5086267;28;20504;-84
2022/08/10 03:54:16;;;;;;;9.17;5.17;;;;;;;13.51;100.00;102243.97;5083409;28;20506;-84
2022/08/10 03:56:45;;;;;;;9.13;5.28;;;;;;;13.47;100.00;102245.56;5083531;28;20432;-85
2022/08/10 03:59:19;;;;;;;9.55;5.30;;;;;;;13.35;100.00;102237.53;5098692;28;20432;-83
2022/08/10 04:01:52;;;;;;;10.67;5.40;;;;;;;13.43;100.00;102249.91;5085981;28;20436;-83
2022/08/10 04:04:26;;;;;;;9.63;5.75;;;;;;;13.41;100.00;102246.63;5080765;28;20435;-82
2022/08/10 04:07:02;;;;;;;8.98;5.32;;;;;;;13.34;100.00;102248.69;5044180;28;20458;-83
2022/08/10 04:09:38;;;;;;;10.05;5.65;;;;;;;13.33;100.00;102247.06;5036685;28;20436;-83
2022/08/10 04:12:11;;;;;;;9.63;5.30;;;;;;;13.21;100.00;102247.22;5033340;28;20925;-84
2022/08/10 04:14:44;;;;;;;8.43;4.90;;;;;;;13.21;100.00;102252.69;5045616;28;20419;-83
2022/08/10 04:17:12;;;;;;;8.55;5.18;;;;;;;13.16;100.00;102245.28;5040676;28;20829;-84
2022/08/10 04:19:48;;;;;;;8.90;5.18;;;;;;;13.18;100.00;102251.28;5039674;28;20420;-83
2022/08/10 04:22:26;;;;;;;8.85;5.30;;;;;;;13.17;100.00;102243.34;5049297;28;20424;-82
2022/08/10 04:25:03;;;;;;;8.32;4.93;;;;;;;13.13;100.00;102244.97;5028160;28;21087;-84
2022/08/10 04:27:37;;;;;;;10.57;5.20;;;;;;;13.10;100.00;102243.56;5029968;28;20895;-82
2022/08/10 04:30:11;;;;;;;10.02;5.05;;;;;;;13.06;100.00;102245.16;5029984;28;20470;-83
2022/08/10 04:32:47;;;;;;;7.75;4.68;;;;;;;13.04;100.00;102259.09;5031097;28;20436;-83
2022/08/10 04:35:22;;;;;;;9.13;5.35;;;;;;;13.04;100.00;102252.81;5033689;28;20403;-84
2022/08/10 04:37:53;;;;;;;9.43;5.10;;;;;;;13.09;100.00;102253.69;5050194;28;20455;-84
2022/08/10 04:40:27;;;;;;;8.20;5.00;;;;;;;13.13;100.00;102253.16;5031016;28;20423;-83
2022/08/10 04:43:02;;;;;;;8.60;4.97;;;;;;;13.10;100.00;102255.34;5030054;28;20428;-83
2022/08/10 04:45:35;;;;;;;8.90;4.80;;;;;;;12.98;100.00;102249.19;5030382;28;20668;-83
2022/08/10 04:48:09;;;;;;;8.57;5.07;;;;;;;13.08;100.00;102254.75;5026046;28;20478;-82
2022/08/10 04:50:42;;;;;;;7.97;4.63;;;;;;;13.18;100.00;102256.75;5029645;28;20429;-83
2022/08/10 04:53:12;;;;;;;8.93;4.85;;;;;;;13.23;100.00;102248.63;5032513;28;20428;-84
2022/08/10 04:55:40;;;;;;;9.35;4.95;;;;;;;13.20;100.00;102251.03;5031278;28;20470;-83
2022/08/10 04:58:13;;;;;;;9.25;4.45;;;;;;;13.23;100.00;102267.75;5041335;28;20679;-83
2022/08/10 05:00:47;;;;;;;9.52;5.07;;;;;;;13.22;100.00;102268.81;5032910;28;21010;-83
2022/08/10 05:03:15;;;;;;;9.43;4.90;;;;;;;13.32;100.00;102268.09;5026576;28;20508;-83
2022/08/10 05:05:48;;;;;;;8.93;5.03;;;;;;;13.35;100.00;102272.22;5042210;28;20937;-84
2022/08/10 05:08:22;;;;;;;8.70;4.93;;;;;;;13.79;100.00;102272.06;5013190;28;20419;-83
2022/08/10 05:10:56;;;;;;;9.73;4.82;;;;;;;15.67;100.00;102265.84;5007682;28;20431;-83
2022/08/10 05:13:24;;;;;;;7.70;4.00;;;;;;;17.30;100.00;102260.03;5006338;28;20429;-83
2022/08/10 05:15:57;;;;;;;7.65;4.00;;;;;;;17.54;100.00;102256.53;5008901;28;20452;-84
2022/08/10 05:18:30;;;;;;;9.07;3.75;;;;;;;17.51;100.00;102265.34;5018861;28;20453;-83
2022/08/10 05:21:04;;;;;;;7.07;3.77;;;;;;;18.13;100.00;102260.13;5008187;28;20433;-83
2022/08/10 05:23:38;;;;;;;6.20;3.55;;;;;;;18.61;100.00;102261.19;5005333;28;20824;-83
2022/08/10 05:26:06;;;;;;;6.38;3.40;;;;;;;18.60;100.00;102260.38;5008485;28;20424;-83
2022/08/10 05:28:39;;;;;;;6.50;3.45;;;;;;;19.13;100.00;102256.59;5006910;28;20429;-84
2022/08/10 05:31:13;;;;;;;5.55;3.20;;;;;;;19.51;100.00;102253.78;5010302;28;20792;-85
2022/08/10 05:33:41;;;;;;;5.40;3.25;;;;;;;19.51;100.00;102240.00;5008349;28;20419;-84
2022/08/10 05:36:15;;;;;;;6.47;3.25;;;;;;;18.60;100.00;102243.00;5003973;28;20435;-84
2022/08/10 05:38:50;;;;;;;6.83;3.50;;;;;;;17.41;100.00;102251.69;5004990;28;20466;-84
2022/08/10 05:41:19;;;;;;;5.93;3.23;;;;;;;17.37;100.00;102256.13;5023653;28;20433;-83
2022/08/10 05:43:52;;;;;;;6.20;3.58;;;;;;;17.25;100.00;102251.81;5013166;28;20428;-83
2022/08/10 05:46:25;;;;;;;6.43;3.63;;;;;;;16.96;100.00;102260.81;5012422;28;20869;-84
2022/08/10 05:48:54;;;;;;;6.82;3.75;;;;;;;16.94;100.00;102264.94;5002525;28;20438;-83
2022/08/10 05:51:28;;;;;;;6.85;3.67;;;;;;;16.92;100.00;102262.50;5014628;28;20432;-84
2022/08/10 05:54:03;;;;;;;7.30;4.10;;;;;;;16.67;100.00;102257.94;5005714;28;20492;-85
2022/08/10 05:56:38;;;;;;;6.55;3.70;;;;;;;16.86;100.00;102254.50;5009520;28;20414;-84
2022/08/10 05:59:15;;;;;;;7.33;4.10;;;;;;;16.82;100.00;102255.09;5007887;28;20466;-83
2022/08/10 06:01:51;;;;;;;7.50;3.90;;;;;;;16.69;100.00;102255.72;5028499;28;20410;-84
2022/08/10 06:04:29;;;;;;;6.68;4.07;;;;;;;16.55;100.00;102252.75;5007557;28;20423;-82
2022/08/10 06:07:05;;;;;;;7.38;4.07;;;;;;;16.56;100.00;102253.56;5008613;28;20429;-83
2022/08/10 06:09:36;;;;;;;9.63;4.20;;;;;;;16.57;100.00;102245.06;5007878;28;20427;-81
2022/08/10 06:12:11;;;;;;;7.95;4.30;;;;;;;16.72;100.00;102249.63;5027675;28;20433;-82
2022/08/10 06:15:00;;;;;;;7.30;4.00;;;;;;;16.87;100.00;102248.72;5014087;28;20432;-83
2022/08/10 06:17:33;;;;;;;7.67;4.03;;;;;;;16.95;100.00;102255.59;5014652;28;20437;-84
2022/08/10 06:20:01;;;;;;;9.52;4.18;;;;;;;16.94;100.00;102246.50;5030377;28;20933;-84
2022/08/10 06:22:31;;;;;;;6.88;3.90;;;;;;;17.15;100.00;102252.72;5014020;28;20459;-83
2022/08/10 06:25:07;;;;;;;6.57;3.88;;;;;;;17.09;100.00;102253.84;5013082;28;20431;-84
2022/08/10 06:27:38;;;;;;;7.32;4.10;;;;;;;17.35;100.00;102248.16;5028259;28;20429;-83
2022/08/10 06:30:08;;;;;;;7.78;3.95;;;;;;;17.51;100.00;102241.41;5020660;28;20450;-83
2022/08/10 06:32:37;;;;;;;8.10;3.83;;;;;;;17.77;100.00;102238.44;5040181;28;20458;-84
2022/08/10 06:35:11;;;;;;;7.65;3.55;;;;;;;17.99;100.00;102237.97;5033719;28;20425;-84
2022/08/10 06:37:45;;;;;;;6.38;3.03;;;;;;;17.92;100.00;102242.16;5020122;28;20432;-83
2022/08/10 06:40:20;;;;;;;9.88;3.00;;;;;;;18.04;100.00;102231.56;5023241;28;20431;-85
2022/08/10 06:42:56;;;;;;;7.88;2.70;;;;;;;18.31;100.00;102232.88;5018353;28;20494;-84
2022/08/10 06:45:33;;;;;;;6.25;2.42;;;;;;;18.32;100.00;102234.53;5015845;28;20427;-83
2022/08/10 06:48:04;;;;;;;7.85;4.07;;;;;;;18.54;100.00;102245.00;5014900;28;20431;-81
2022/08/10 06:50:41;;;;;;;8.20;2.70;;;;;;;18.29;100.00;102235.94;5002900;28;23618;-81
2022/08/10 06:53:12;;;;;;;4.07;2.35;;;;;;;18.21;100.00;102230.28;5013567;28;20425;-81
2022/08/10 06:55:45;;;;;;;5.68;2.53;;;;;;;18.38;100.00;102238.03;5023588;28;20429;-82
2022/08/10 06:58:21;;;;;;;6.78;2.63;;;;;;;18.57;100.00;102235.31;5004691;28;20417;-80
2022/08/10 07:00:52;;;;;;;4.30;2.22;;;;;;;18.78;100.00;102233.94;4999624;28;20425;-83
2022/08/10 07:03:31;;;;;;;4.47;2.10;;;;;;;18.86;100.00;102222.22;4999641;28;21016;-82
2022/08/10 07:06:07;;;;;;;4.68;2.30;;;;;;;18.78;100.00;102231.19;5003858;28;20921;-81
2022/08/10 07:08:41;;;;;;;4.60;2.30;;;;;;;18.99;100.00;102231.72;5011694;28;20466;-82
2022/08/10 07:11:19;;;;;;;4.35;2.10;;;;;;;19.29;100.00;102228.75;5028938;28;20435;-81
2022/08/10 07:13:55;;;;;;;3.00;1.83;;;;;;;19.43;100.00;102226.88;5003445;28;20422;-82
2022/08/10 07:16:27;;;;;;;5.67;2.20;;;;;;;19.38;100.00;102226.97;5011602;28;20411;-82
2022/08/10 07:19:02;;;;;;;4.82;2.10;;;;;;;19.35;100.00;102241.38;5004926;28;20430;-81
2022/08/10 07:21:42;;;;;;;3.50;1.80;;;;;;;19.45;100.00;102234.84;5019403;28;20430;-85
2022/08/10 07:24:17;;;;;;;5.32;2.47;;;;;;;19.53;100.00;102229.44;5013330;28;21342;-83
2022/08/10 07:26:54;;;;;;;4.07;1.83;;;;;;;19.55;100.00;102231.91;5007809;28;20437;-84
2022/08/10 07:29:30;;;;;;;3.90;1.90;;;;;;;19.84;100.00;102244.66;5023822;28;20800;-83
2022/08/10 07:32:05;;;;;;;2.70;1.75;;;;;;;19.85;100.00;102244.34;5013710;28;21267;-83
2022/08/10 07:34:36;;;;;;;4.15;1.40;;;;;;;19.84;100.00;102239.16;5018943;28;20438;-83
2022/08/10 07:37:10;;;;;;;5.35;1.60;;;;;;;19.95;100.00;102242.53;5017588;28;21439;-82
2022/08/10 07:39:47;;;;;;;3.00;1.60;;;;;;;20.14;100.00;102248.78;5008870;28;20455;-83
2022/08/10 07:42:25;;;;;;;3.83;1.60;;;;;;;20.28;100.00;102242.44;5018596;28;20458;-84
2022/08/10 07:44:54;;;;;;;3.30;1.50;;;;;;;20.27;100.00;102240.78;5013295;28;20444;-82
2022/08/10 07:47:32;;;;;;;3.55;1.65;;;;;;;20.26;100.00;102241.91;5010971;28;20876;-85
2022/08/10 07:50:08;;;;;;;4.57;1.60;;;;;;;20.14;100.00;102243.25;5007444;28;20439;-82
2022/08/10 07:52:43;;;;;;;3.50;1.50;;;;;;;20.21;100.00;102242.84;5007117;28;20429;-83
2022/08/10 07:55:16;;;;;;;3.13;1.60;;;;;;;20.19;100.00;102243.16;5017252;28;20440;-83
2022/08/10 07:57:54;;;;;;;5.40;1.38;;;;;;;20.40;100.00;102245.50;5015054;28;20440;-83
2022/08/10 08:00:23;;;;;;;3.97;1.30;;;;;;;20.53;100.00;102247.41;5017896;28;20448;-82
2022/08/10 08:03:00;;;;;;;3.83;1.40;;;;;;;20.63;100.00;102245.56;5018452;28;20436;-84
2022/08/10 08:05:32;;;;;;;4.63;1.40;;;;;;;20.49;100.00;102246.41;5021514;28;20425;-83
2022/08/10 08:08:07;;;;;;;5.03;1.33;;;;;;;20.24;100.00;102258.81;5021667;28;20424;-83
2022/08/10 08:10:41;;;;;;;4.18;1.40;;;;;;;20.58;100.00;102245.66;5027586;28;20434;-83
2022/08/10 08:13:20;;;;;;;7.68;1.50;;;;;;;20.68;100.00;102237.19;5031195;28;20432;-84
2022/08/10 08:15:54;;;;;;;3.38;1.30;;;;;;;21.08;100.00;102242.91;5022797;28;20417;-85
2022/08/10 08:18:28;;;;;;;2.40;1.20;;;;;;;21.14;100.00;102235.28;5014016;28;20418;-83
2022/08/10 08:21:02;;;;;;;2.85;1.40;;;;;;;21.16;100.00;102233.03;5014708;28;20429;-85
2022/08/10 08:23:39;;;;;;;4.88;1.33;;;;;;;21.23;100.00;102241.72;5024312;28;20421;-82
2022/08/10 08:26:12;;;;;;;2.85;1.20;;;;;;;21.00;99.20;102240.88;5015101;28;21207;-82
2022/08/10 08:28:49;;;;;;;3.90;1.50;;;;;;;21.00;100.00;102232.59;5031331;28;20442;-83
2022/08/10 08:31:23;;;;;;;4.68;1.30;;;;;;;21.17;100.00;102231.88;5016247;28;20448;-83
2022/08/10 08:33:58;;;;;;;2.97;1.38;;;;;;;21.25;100.00;102228.34;5024249;28;20444;-83
2022/08/10 08:36:33;;;;;;;3.00;1.30;;;;;;;21.26;100.00;102232.78;5028491;28;20426;-84
2022/08/10 08:39:06;;;;;;;3.95;1.40;;;;;;;21.49;100.00;102236.34;5024211;28;20437;-84
2022/08/10 08:42:03;;;;;;;4.20;1.30;;;;;;;21.49;100.00;102230.81;5033931;28;20432;-83
2022/08/10 08:44:59;;;;;;;3.17;1.15;;;;;;;21.53;100.00;102226.31;5039640;28;21106;-83
2022/08/10 08:48:01;;;;;;;2.90;1.50;;;;;;;21.57;100.00;102232.84;5027505;28;20437;-84
2022/08/10 08:50:52;;;;;;;4.72;1.40;;;;;;;21.57;100.00;102232.00;5018174;28;21161;-83
2022/08/10 08:53:31;;;;;;;4.35;1.50;;;;;;;21.87;100.00;102224.81;5040406;28;20454;-83
2022/08/10 08:56:14;;;;;;;4.60;1.50;;;;;;;21.78;100.00;102223.16;5042118;28;20424;-83
2022/08/10 08:58:56;;;;;;;3.25;1.40;;;;;;;21.95;100.00;102222.44;5042756;28;20443;-83
2022/08/10 09:01:46;;;;;;;4.73;1.80;;;;;;;21.97;95.91;102222.91;5033138;28;20439;-83
2022/08/10 09:04:33;;;;;;;4.00;1.20;;;;;;;21.98;100.00;102227.31;5033342;28;20437;-83
2022/08/10 09:07:31;;;;;;;2.40;1.23;;;;;;;22.06;91.31;102221.00;5036121;28;20436;-83
2022/08/10 09:10:10;;;;;;;2.88;1.15;;;;;;;22.11;95.79;102215.31;5041500;28;20432;-82
2022/08/10 09:12:50;;;;;;;3.30;1.47;;;;;;;22.22;100.00;102210.25;5038588;28;22405;-83
2022/08/10 09:15:27;;;;;;;3.40;1.30;;;;;;;22.24;92.00;102208.81;5050110;28;20448;-83
2022/08/10 09:18:13;;;;;;;3.65;1.33;;;;;;;22.24;95.81;102208.81;5037979;28;20435;-84
2022/08/10 09:20:51;;;;;;;3.28;1.33;;;;;;;22.32;87.71;102203.63;5043072;28;20508;-82
2022/08/10 09:23:26;;;;;;;3.30;1.20;;;;;;;22.30;84.76;102215.00;5029756;28;20425;-81
2022/08/10 09:25:59;;;;;;;3.05;1.00;;;;;;;21.90;91.63;102210.34;5053988;28;20432;-82
2022/08/10 09:28:35;;;;;;;2.55;1.20;;;;;;;21.74;95.60;102207.16;5033921;28;20446;-83
2022/08/10 09:31:11;;;;;;;3.75;1.40;;;;;;;21.45;100.00;102209.59;5033057;28;20436;-84
2022/08/10 09:33:52;;;;;;;5.00;1.50;;;;;;;21.29;100.00;102203.66;5035761;28;20416;-83
2022/08/10 09:36:32;;;;;;;4.22;1.50;;;;;;;21.47;100.00;102199.81;5042933;28;20426;-83
2022/08/10 09:39:13;;;;;;;3.15;1.42;;;;;;;21.94;96.25;102193.06;5031901;28;20425;-85
2022/08/10 09:41:54;;;;;;;2.75;1.20;;;;;;;22.21;93.29;102181.72;5030579;28;20433;-85
2022/08/10 09:44:38;;;;;;;2.80;1.37;;;;;;;22.51;99.04;102195.84;5026082;28;20941;-83
2022/08/10 09:47:26;;;;;;;2.70;1.08;;;;;;;22.72;90.06;102192.44;5026551;28;20907;-84
2022/08/10 09:50:12;;;;;;;2.67;1.10;;;;;;;22.82;85.50;102200.41;5029596;28;20421;-83
2022/08/10 09:53:01;;;;;;;4.25;1.13;;;;;;;22.72;85.26;102196.00;5015197;28;20823;-83
2022/08/10 09:55:42;;;;;;;3.10;1.20;;;;;;;22.58;94.55;102190.63;5012602;28;20419;-83
2022/08/10 09:58:37;;;;;;;5.85;1.40;;;;;;;22.34;95.85;102193.03;5025062;28;20899;-84
2022/08/10 10:01:19;;;;;;;2.00;1.20;;;;;;;22.40;100.00;102198.09;5016896;28;20782;-84
2022/08/10 10:03:59;;;;;;;3.00;1.20;;;;;;;22.72;85.06;102186.88;5009350;28;20425;-82
2022/08/10 10:06:43;;;;;;;3.03;1.15;;;;;;;23.10;84.91;102188.94;5019701;28;20428;-83
2022/08/10 10:09:19;;;;;;;3.63;1.10;;;;;;;23.37;89.47;102190.56;5030285;28;20425;-84
2022/08/10 10:12:05;;;;;;;3.20;1.40;;;;;;;23.41;88.45;102180.44;5016070;28;20435;-83
2022/08/10 10:18:03;;;;;;;3.43;1.30;;;;;;;23.65;78.05;102181.81;5011888;28;20437;-85
2022/08/10 10:20:39;;;;;;;3.92;1.17;;;;;;;23.57;76.46;102172.38;5017799;28;20420;-84
2022/08/10 10:23:23;;;;;;;3.58;1.25;;;;;;;23.35;74.92;102167.88;5029164;28;20429;-83
2022/08/10 10:26:11;;;;;;;1.90;1.17;;;;;;;23.32;80.03;102167.72;5010964;28;20436;-84
2022/08/10 10:29:04;;;;;;;1.77;1.10;;;;;;;23.22;79.19;102166.91;5017244;28;20433;-85
2022/08/10 10:31:42;;;;;;;4.40;1.20;;;;;;;23.33;79.21;102155.47;5010436;28;20957;-83
2022/08/10 10:34:17;;;;;;;3.60;1.20;;;;;;;23.44;80.13;102157.53;5006218;28;20427;-84
2022/08/10 10:36:50;;;;;;;5.07;1.23;;;;;;;23.51;82.66;102159.78;5022641;28;20431;-84
2022/08/10 10:39:24;;;;;;;2.63;1.30;;;;;;;23.72;77.78;102159.06;5026165;28;21155;-87
2022/08/10 10:42:15;;;;;;;2.83;1.17;;;;;;;23.99;77.34;102151.41;5003664;28;20432;-83
2022/08/10 10:44:55;;;;;;;2.47;1.15;;;;;;;23.76;74.79;102144.16;5010924;28;20790;-84
2022/08/10 10:47:41;;;;;;;3.40;1.10;;;;;;;23.96;76.69;102149.31;5008080;28;20435;-84
2022/08/10 10:50:13;;;;;;;3.08;1.20;;;;;;;23.56;75.67;102150.44;5014569;28;20900;-84
2022/08/10 10:52:50;;;;;;;2.53;1.20;;;;;;;23.30;76.31;102143.03;5014399;28;21229;-84
2022/08/10 10:55:28;;;;;;;3.28;1.00;;;;;;;23.15;77.86;102146.38;5010662;28;20432;-84
2022/08/10 10:58:07;;;;;;;2.15;1.08;;;;;;;22.95;79.44;102147.81;5029620;28;20465;-85
2022/08/10 11:00:52;;;;;;;3.70;1.10;;;;;;;22.92;84.94;102138.19;5030445;28;20432;-84
2022/08/10 11:03:48;;;;;;;2.50;1.20;;;;;;;23.12;75.28;102142.28;5028899;28;21472;-84
2022/08/10 11:06:33;;;;;;;4.55;1.60;;;;;;;23.49;72.45;102127.94;5016727;28;20427;-88
2022/08/10 11:09:13;;;;;;;3.78;1.38;;;;;;;23.81;73.43;102131.22;5038997;28;20444;-84
2022/08/10 11:11:54;;;;;;;2.50;1.40;;;;;;;23.89;74.71;102127.59;5033242;28;20436;-84
2022/08/10 11:14:35;;;;;;;2.72;1.27;;;;;;;24.20;75.38;102129.22;5027676;28;20429;-84
2022/08/10 11:17:17;;;;;;;4.72;1.48;;;;;;;24.07;77.89;102131.09;5018555;28;20475;-85
2022/08/10 11:19:55;;;;;;;4.32;1.30;;;;;;;24.32;84.44;102132.06;5019427;28;20943;-84
2022/08/10 11:22:33;;;;;;;3.90;1.30;;;;;;;24.18;64.52;102135.13;5022339;28;20445;-82
2022/08/10 11:25:12;;;;;;;3.50;1.30;;;;;;;24.09;68.91;102137.13;5008166;28;21503;-83
2022/08/10 11:27:49;;;;;;;3.13;1.43;;;;;;;24.46;73.37;102123.44;4998339;28;20419;-83
2022/08/10 11:30:28;;;;;;;3.40;1.40;;;;;;;24.78;71.41;102119.06;5011933;28;20432;-83
2022/08/10 11:33:14;;;;;;;3.20;1.20;;;;;;;24.95;68.45;102115.31;5027640;28;20436;-84
2022/08/10 11:35:50;;;;;;;2.88;1.45;;;;;;;24.90;62.61;102109.13;5006653;28;20456;-83
2022/08/10 11:38:30;;;;;;;2.72;1.10;;;;;;;25.10;71.41;102115.81;5031067;28;20438;-83
2022/08/10 11:41:07;;;;;;;2.67;1.25;;;;;;;25.11;69.61;102120.22;5008695;28;20444;-84
2022/08/10 11:43:49;;;;;;;1.90;1.00;;;;;;;25.11;64.82;102104.31;5036105;28;20438;-83
2022/08/10 11:46:30;;;;;;;3.20;1.30;;;;;;;25.41;67.18;102104.16;5009693;28;20493;-83
2022/08/10 11:49:05;;;;;;;3.53;1.27;;;;;;;25.48;69.22;102111.94;5020148;28;21131;-84
2022/08/10 11:51:44;;;;;;;4.45;1.15;;;;;;;25.40;70.11;102101.72;5004486;28;20427;-83
2022/08/10 11:54:25;;;;;;;2.33;1.10;;;;;;;24.88;69.55;102105.88;5018496;28;20916;-84
2022/08/10 11:56:59;;;;;;;3.20;1.30;;;;;;;24.77;69.66;102105.50;5032497;28;20429;-83
2022/08/10 12:02:32;;;;;;;3.78;1.10;;;;;;;24.89;70.35;102097.19;5016900;28;20436;-85
2022/08/10 12:05:08;;;;;;;2.25;1.17;;;;;;;24.94;62.92;102094.19;5008582;28;20433;-83
2022/08/10 12:07:45;;;;;;;3.60;1.17;;;;;;;24.64;61.52;102089.91;4983755;28;20447;-85
2022/08/10 12:10:20;;;;;;;2.47;1.30;;;;;;;24.91;65.27;102094.06;5008496;28;20444;-82